<?xml version="1.0" encoding="UTF-8"?>
<gpx xmlns:xsi="http://www.w3.org/2001/XMLSchema-instance" xmlns="http://www.topografix.com/GPX/1/1" xsi:schemaLocation="http://www.topografix.com/GPX/1/1 http://www.topografix.com/GPX/1/1/gpx.xsd" version="1.1">
  <metadata>
    <name>Saugerties Triathlon Sprint Bike</name>
    <copyright author="OpenStreetMap contributors">
      <year>2020</year>
      <license>https://www.openstreetmap.org/copyright</license>
    </copyright>
    <link href="https://www.strava.com/routes/2810919449979462624"/>
  </metadata>
  <trk>
    <name>Saugerties Triathlon Sprint Bike</name>
    <link href="https://www.strava.com/routes/2810919449979462624"/>
    <type>Radfahrt</type>
    <trkseg>
      <trkpt lat="42.073694" lon="-73.949953">
        <ele>28.759995</ele>
        <time>2021-10-10T08:15:00.000Z</time>
      </trkpt>
      <trkpt lat="42.073738" lon="-73.950523">
        <ele>28.419991</ele>
        <time>2021-10-10T08:15:05.000Z</time>
      </trkpt>
      <trkpt lat="42.074039" lon="-73.950621">
        <ele>30.260001</ele>
        <time>2021-10-10T08:15:08.000Z</time>
      </trkpt>
      <trkpt lat="42.0744890003" lon="-73.9508679983">
        <ele>33.780008</ele>
        <time>2021-10-10T08:15:13.000Z</time>
      </trkpt>
      <trkpt lat="42.074919" lon="-73.951112">
        <ele>37.919999</ele>
        <time>2021-10-10T08:15:18.000Z</time>
      </trkpt>
      <trkpt lat="42.0754740002" lon="-73.951333998">
        <ele>41.309999</ele>
        <time>2021-10-10T08:15:24.000Z</time>
      </trkpt>
      <trkpt lat="42.076019" lon="-73.951561">
        <ele>44.790004</ele>
        <time>2021-10-10T08:15:30.000Z</time>
      </trkpt>
      <trkpt lat="42.0766000006" lon="-73.951859328">
        <ele>45.880005</ele>
        <time>2021-10-10T08:15:37.000Z</time>
      </trkpt>
      <trkpt lat="42.0771890006" lon="-73.9521456614">
        <ele>46.189992</ele>
        <time>2021-10-10T08:15:44.000Z</time>
      </trkpt>
      <trkpt lat="42.077771" lon="-73.952411">
        <ele>46.740006</ele>
        <time>2021-10-10T08:15:51.000Z</time>
      </trkpt>
      <trkpt lat="42.077803" lon="-73.952339">
        <ele>46.680005</ele>
        <time>2021-10-10T08:15:52.000Z</time>
      </trkpt>
      <trkpt lat="42.077783" lon="-73.952411">
        <ele>46.74</ele>
        <time>2021-10-10T08:15:53.000Z</time>
      </trkpt>
      <trkpt lat="42.0780560054" lon="-73.9516230067">
        <ele>46.600006</ele>
        <time>2021-10-10T08:16:00.000Z</time>
      </trkpt>
      <trkpt lat="42.0783210054" lon="-73.9508480067">
        <ele>46.699992</ele>
        <time>2021-10-10T08:16:07.000Z</time>
      </trkpt>
      <trkpt lat="42.078589" lon="-73.950049">
        <ele>47.030001</ele>
        <time>2021-10-10T08:16:14.000Z</time>
      </trkpt>
      <trkpt lat="42.0789600096" lon="-73.9490090122">
        <ele>47.260006</ele>
        <time>2021-10-10T08:16:24.000Z</time>
      </trkpt>
      <trkpt lat="42.0793320096" lon="-73.9479530122">
        <ele>47.580007</ele>
        <time>2021-10-10T08:16:34.000Z</time>
      </trkpt>
      <trkpt lat="42.079697" lon="-73.946905">
        <ele>47.020008</ele>
        <time>2021-10-10T08:16:44.000Z</time>
      </trkpt>
      <trkpt lat="42.079792" lon="-73.94654">
        <ele>46.799991</ele>
        <time>2021-10-10T08:16:47.000Z</time>
      </trkpt>
      <trkpt lat="42.0800390054" lon="-73.9454300044">
        <ele>45.540003</ele>
        <time>2021-10-10T08:16:57.000Z</time>
      </trkpt>
      <trkpt lat="42.080287" lon="-73.944311">
        <ele>46.290005</ele>
        <time>2021-10-10T08:17:07.000Z</time>
      </trkpt>
      <trkpt lat="42.080367" lon="-73.944143">
        <ele>46.920003</ele>
        <time>2021-10-10T08:17:09.000Z</time>
      </trkpt>
      <trkpt lat="42.080364" lon="-73.944135">
        <ele>46.940001</ele>
        <time>2021-10-10T08:17:09.000Z</time>
      </trkpt>
      <trkpt lat="42.080537" lon="-73.944084">
        <ele>46.849995</ele>
        <time>2021-10-10T08:17:11.000Z</time>
      </trkpt>
      <trkpt lat="42.080736" lon="-73.944133">
        <ele>46.729998</ele>
        <time>2021-10-10T08:17:13.000Z</time>
      </trkpt>
      <trkpt lat="42.081538" lon="-73.944097">
        <ele>46.470004</ele>
        <time>2021-10-10T08:17:22.000Z</time>
      </trkpt>
      <trkpt lat="42.0822420001" lon="-73.9439586695">
        <ele>44.620009</ele>
        <time>2021-10-10T08:17:30.000Z</time>
      </trkpt>
      <trkpt lat="42.082964" lon="-73.9438433361">
        <ele>43.779991</ele>
        <time>2021-10-10T08:17:38.000Z</time>
      </trkpt>
      <trkpt lat="42.083699" lon="-73.943721">
        <ele>42.579997</ele>
        <time>2021-10-10T08:17:46.000Z</time>
      </trkpt>
      <trkpt lat="42.084193" lon="-73.943404">
        <ele>42.859994</ele>
        <time>2021-10-10T08:17:52.000Z</time>
      </trkpt>
      <trkpt lat="42.084419" lon="-73.94323">
        <ele>42.889998</ele>
        <time>2021-10-10T08:17:55.000Z</time>
      </trkpt>
      <trkpt lat="42.084969" lon="-73.942648">
        <ele>47.289999</ele>
        <time>2021-10-10T08:18:03.000Z</time>
      </trkpt>
      <trkpt lat="42.085323" lon="-73.942416">
        <ele>49.369997</ele>
        <time>2021-10-10T08:18:07.000Z</time>
      </trkpt>
      <trkpt lat="42.085654" lon="-73.942256">
        <ele>50.360008</ele>
        <time>2021-10-10T08:18:11.000Z</time>
      </trkpt>
      <trkpt lat="42.0862330002" lon="-73.9420420019">
        <ele>51.219995</ele>
        <time>2021-10-10T08:18:18.000Z</time>
      </trkpt>
      <trkpt lat="42.0868" lon="-73.941846">
        <ele>51.240002</ele>
        <time>2021-10-10T08:18:25.000Z</time>
      </trkpt>
      <trkpt lat="42.087394" lon="-73.941714">
        <ele>52.370003</ele>
        <time>2021-10-10T08:18:32.000Z</time>
      </trkpt>
      <trkpt lat="42.088126" lon="-73.941667">
        <ele>53.960005</ele>
        <time>2021-10-10T08:18:40.000Z</time>
      </trkpt>
      <trkpt lat="42.088312" lon="-73.941679">
        <ele>53.700005</ele>
        <time>2021-10-10T08:18:42.000Z</time>
      </trkpt>
      <trkpt lat="42.088513" lon="-73.941609">
        <ele>52.839998</ele>
        <time>2021-10-10T08:18:44.000Z</time>
      </trkpt>
      <trkpt lat="42.088823" lon="-73.94145">
        <ele>51.820009</ele>
        <time>2021-10-10T08:18:48.000Z</time>
      </trkpt>
      <trkpt lat="42.089252" lon="-73.941143">
        <ele>48.719999</ele>
        <time>2021-10-10T08:18:53.000Z</time>
      </trkpt>
      <trkpt lat="42.089463" lon="-73.940953">
        <ele>47.839996</ele>
        <time>2021-10-10T08:18:56.000Z</time>
      </trkpt>
      <trkpt lat="42.089708" lon="-73.940687">
        <ele>47.179995</ele>
        <time>2021-10-10T08:18:59.000Z</time>
      </trkpt>
      <trkpt lat="42.090013" lon="-73.940278">
        <ele>46.859993</ele>
        <time>2021-10-10T08:19:04.000Z</time>
      </trkpt>
      <trkpt lat="42.090358" lon="-73.939963">
        <ele>46.619995</ele>
        <time>2021-10-10T08:19:09.000Z</time>
      </trkpt>
      <trkpt lat="42.090561" lon="-73.939835">
        <ele>46.369997</ele>
        <time>2021-10-10T08:19:11.000Z</time>
      </trkpt>
      <trkpt lat="42.090698" lon="-73.939784">
        <ele>46.429998</ele>
        <time>2021-10-10T08:19:13.000Z</time>
      </trkpt>
      <trkpt lat="42.091435" lon="-73.939648">
        <ele>47.619995</ele>
        <time>2021-10-10T08:19:21.000Z</time>
      </trkpt>
      <trkpt lat="42.091886" lon="-73.939602">
        <ele>48.269994</ele>
        <time>2021-10-10T08:19:26.000Z</time>
      </trkpt>
      <trkpt lat="42.0923740001" lon="-73.9396539997">
        <ele>49.120004</ele>
        <time>2021-10-10T08:19:31.000Z</time>
      </trkpt>
      <trkpt lat="42.092852" lon="-73.939688">
        <ele>51.029992</ele>
        <time>2021-10-10T08:19:36.000Z</time>
      </trkpt>
      <trkpt lat="42.093245" lon="-73.939759">
        <ele>52.42</ele>
        <time>2021-10-10T08:19:40.000Z</time>
      </trkpt>
      <trkpt lat="42.094064" lon="-73.939974">
        <ele>54.419995</ele>
        <time>2021-10-10T08:19:49.000Z</time>
      </trkpt>
      <trkpt lat="42.094435" lon="-73.939996">
        <ele>54.980005</ele>
        <time>2021-10-10T08:19:53.000Z</time>
      </trkpt>
      <trkpt lat="42.094627" lon="-73.939965">
        <ele>55.779995</ele>
        <time>2021-10-10T08:19:55.000Z</time>
      </trkpt>
      <trkpt lat="42.095022" lon="-73.93981">
        <ele>57.849994</ele>
        <time>2021-10-10T08:20:00.000Z</time>
      </trkpt>
      <trkpt lat="42.0954890003" lon="-73.9396240013">
        <ele>59.660005</ele>
        <time>2021-10-10T08:20:05.000Z</time>
      </trkpt>
      <trkpt lat="42.095965" lon="-73.939424">
        <ele>60.590003</ele>
        <time>2021-10-10T08:20:11.000Z</time>
      </trkpt>
      <trkpt lat="42.096613" lon="-73.939207">
        <ele>58.640004</ele>
        <time>2021-10-10T08:20:18.000Z</time>
      </trkpt>
      <trkpt lat="42.097488" lon="-73.939017">
        <ele>56.299995</ele>
        <time>2021-10-10T08:20:28.000Z</time>
      </trkpt>
      <trkpt lat="42.098288" lon="-73.938906">
        <ele>54.769998</ele>
        <time>2021-10-10T08:20:37.000Z</time>
      </trkpt>
      <trkpt lat="42.098879" lon="-73.938877">
        <ele>52.570002</ele>
        <time>2021-10-10T08:20:44.000Z</time>
      </trkpt>
      <trkpt lat="42.099356" lon="-73.938845">
        <ele>49.580001</ele>
        <time>2021-10-10T08:20:49.000Z</time>
      </trkpt>
      <trkpt lat="42.099629" lon="-73.938752">
        <ele>48.200008</ele>
        <time>2021-10-10T08:20:52.000Z</time>
      </trkpt>
      <trkpt lat="42.1003700005" lon="-73.9384660034">
        <ele>47.060008</ele>
        <time>2021-10-10T08:21:01.000Z</time>
      </trkpt>
      <trkpt lat="42.101117" lon="-73.93817">
        <ele>47.139991</ele>
        <time>2021-10-10T08:21:10.000Z</time>
      </trkpt>
      <trkpt lat="42.1016370002" lon="-73.937917002">
        <ele>47.209993</ele>
        <time>2021-10-10T08:21:16.000Z</time>
      </trkpt>
      <trkpt lat="42.102151" lon="-73.93768">
        <ele>47.880002</ele>
        <time>2021-10-10T08:21:22.000Z</time>
      </trkpt>
      <trkpt lat="42.102681" lon="-73.937557">
        <ele>49.859998</ele>
        <time>2021-10-10T08:21:28.000Z</time>
      </trkpt>
      <trkpt lat="42.103002" lon="-73.937509">
        <ele>50.230002</ele>
        <time>2021-10-10T08:21:32.000Z</time>
      </trkpt>
      <trkpt lat="42.103381" lon="-73.937551">
        <ele>51.149997</ele>
        <time>2021-10-10T08:21:36.000Z</time>
      </trkpt>
      <trkpt lat="42.10399" lon="-73.937722">
        <ele>51.620008</ele>
        <time>2021-10-10T08:21:43.000Z</time>
      </trkpt>
      <trkpt lat="42.1045290001" lon="-73.9378439991">
        <ele>49.860008</ele>
        <time>2021-10-10T08:21:49.000Z</time>
      </trkpt>
      <trkpt lat="42.105048" lon="-73.937933">
        <ele>47.610003</ele>
        <time>2021-10-10T08:21:55.000Z</time>
      </trkpt>
      <trkpt lat="42.105286" lon="-73.937953">
        <ele>46.759991</ele>
        <time>2021-10-10T08:21:58.000Z</time>
      </trkpt>
      <trkpt lat="42.106094" lon="-73.9378870015">
        <ele>45.67</ele>
        <time>2021-10-10T08:22:07.000Z</time>
      </trkpt>
      <trkpt lat="42.1069179999" lon="-73.9378280015">
        <ele>46.530001</ele>
        <time>2021-10-10T08:22:16.000Z</time>
      </trkpt>
      <trkpt lat="42.107712" lon="-73.937775">
        <ele>49.820008</ele>
        <time>2021-10-10T08:22:25.000Z</time>
      </trkpt>
      <trkpt lat="42.108046" lon="-73.937733">
        <ele>51.319991</ele>
        <time>2021-10-10T08:22:29.000Z</time>
      </trkpt>
      <trkpt lat="42.108434" lon="-73.937639">
        <ele>52.929999</ele>
        <time>2021-10-10T08:22:33.000Z</time>
      </trkpt>
      <trkpt lat="42.108623" lon="-73.937546">
        <ele>53.209992</ele>
        <time>2021-10-10T08:22:35.000Z</time>
      </trkpt>
      <trkpt lat="42.1092430018" lon="-73.9371855108">
        <ele>53.670004</ele>
        <time>2021-10-10T08:22:43.000Z</time>
      </trkpt>
      <trkpt lat="42.1098530023" lon="-73.9368190144">
        <ele>53.140002</ele>
        <time>2021-10-10T08:22:50.000Z</time>
      </trkpt>
      <trkpt lat="42.1104880018" lon="-73.9364555108">
        <ele>52.460008</ele>
        <time>2021-10-10T08:22:58.000Z</time>
      </trkpt>
      <trkpt lat="42.111096" lon="-73.936082">
        <ele>52.039998</ele>
        <time>2021-10-10T08:23:05.000Z</time>
      </trkpt>
      <trkpt lat="42.111379" lon="-73.93598">
        <ele>51.940002</ele>
        <time>2021-10-10T08:23:08.000Z</time>
      </trkpt>
      <trkpt lat="42.111581" lon="-73.935925">
        <ele>51.190008</ele>
        <time>2021-10-10T08:23:10.000Z</time>
      </trkpt>
      <trkpt lat="42.111787" lon="-73.935928">
        <ele>51.189998</ele>
        <time>2021-10-10T08:23:12.000Z</time>
      </trkpt>
      <trkpt lat="42.112515" lon="-73.936196">
        <ele>52.289999</ele>
        <time>2021-10-10T08:23:20.000Z</time>
      </trkpt>
      <trkpt lat="42.112751" lon="-73.936247">
        <ele>53.220009</ele>
        <time>2021-10-10T08:23:23.000Z</time>
      </trkpt>
      <trkpt lat="42.112978" lon="-73.936258">
        <ele>53.840007</ele>
        <time>2021-10-10T08:23:26.000Z</time>
      </trkpt>
      <trkpt lat="42.113425" lon="-73.936248">
        <ele>54.599991</ele>
        <time>2021-10-10T08:23:31.000Z</time>
      </trkpt>
      <trkpt lat="42.113905" lon="-73.936184">
        <ele>55.359991</ele>
        <time>2021-10-10T08:23:36.000Z</time>
      </trkpt>
      <trkpt lat="42.1146720003" lon="-73.935994671">
        <ele>55.289999</ele>
        <time>2021-10-10T08:23:45.000Z</time>
      </trkpt>
      <trkpt lat="42.1154280004" lon="-73.9358203377">
        <ele>51.520008</ele>
        <time>2021-10-10T08:23:54.000Z</time>
      </trkpt>
      <trkpt lat="42.116184" lon="-73.935631">
        <ele>47.330007</ele>
        <time>2021-10-10T08:24:03.000Z</time>
      </trkpt>
      <trkpt lat="42.116478" lon="-73.935536">
        <ele>47.220004</ele>
        <time>2021-10-10T08:24:06.000Z</time>
      </trkpt>
      <trkpt lat="42.116645" lon="-73.935444">
        <ele>47.379997</ele>
        <time>2021-10-10T08:24:08.000Z</time>
      </trkpt>
      <trkpt lat="42.116965" lon="-73.935193">
        <ele>47.920007</ele>
        <time>2021-10-10T08:24:12.000Z</time>
      </trkpt>
      <trkpt lat="42.117208" lon="-73.934953">
        <ele>48.070006</ele>
        <time>2021-10-10T08:24:15.000Z</time>
      </trkpt>
      <trkpt lat="42.117208" lon="-73.934962">
        <ele>48.059992</ele>
        <time>2021-10-10T08:24:15.000Z</time>
      </trkpt>
      <trkpt lat="42.117266" lon="-73.935267">
        <ele>47.259997</ele>
        <time>2021-10-10T08:24:18.000Z</time>
      </trkpt>
      <trkpt lat="42.1173540035" lon="-73.9361629986">
        <ele>47.030006</ele>
        <time>2021-10-10T08:24:25.000Z</time>
      </trkpt>
      <trkpt lat="42.117434" lon="-73.937059">
        <ele>47.430005</ele>
        <time>2021-10-10T08:24:32.000Z</time>
      </trkpt>
      <trkpt lat="42.117532" lon="-73.937688">
        <ele>45.929992</ele>
        <time>2021-10-10T08:24:37.000Z</time>
      </trkpt>
      <trkpt lat="42.11758" lon="-73.937869">
        <ele>45.929991</ele>
        <time>2021-10-10T08:24:39.000Z</time>
      </trkpt>
      <trkpt lat="42.1179606713" lon="-73.9385929911">
        <ele>44.219994</ele>
        <time>2021-10-10T08:24:46.000Z</time>
      </trkpt>
      <trkpt lat="42.118357338" lon="-73.9393189912">
        <ele>43.340006</ele>
        <time>2021-10-10T08:24:53.000Z</time>
      </trkpt>
      <trkpt lat="42.118733" lon="-73.940044">
        <ele>43.359995</ele>
        <time>2021-10-10T08:25:00.000Z</time>
      </trkpt>
      <trkpt lat="42.119145" lon="-73.940944">
        <ele>43.440007</ele>
        <time>2021-10-10T08:25:09.000Z</time>
      </trkpt>
      <trkpt lat="42.1194373378" lon="-73.941658327">
        <ele>43.310009</ele>
        <time>2021-10-10T08:25:16.000Z</time>
      </trkpt>
      <trkpt lat="42.1197246711" lon="-73.9423756604">
        <ele>43.280006</ele>
        <time>2021-10-10T08:25:23.000Z</time>
      </trkpt>
      <trkpt lat="42.120003" lon="-73.943088">
        <ele>43.339999</ele>
        <time>2021-10-10T08:25:30.000Z</time>
      </trkpt>
      <trkpt lat="42.1202500018" lon="-73.9437189977">
        <ele>43.540009</ele>
        <time>2021-10-10T08:25:36.000Z</time>
      </trkpt>
      <trkpt lat="42.120486" lon="-73.944351">
        <ele>44.099998</ele>
        <time>2021-10-10T08:25:42.000Z</time>
      </trkpt>
      <trkpt lat="42.120597" lon="-73.94471">
        <ele>44.339997</ele>
        <time>2021-10-10T08:25:45.000Z</time>
      </trkpt>
      <trkpt lat="42.120663" lon="-73.945146">
        <ele>46.170004</ele>
        <time>2021-10-10T08:25:49.000Z</time>
      </trkpt>
      <trkpt lat="42.120729" lon="-73.945295">
        <ele>46.559991</ele>
        <time>2021-10-10T08:25:50.000Z</time>
      </trkpt>
      <trkpt lat="42.120957" lon="-73.945576">
        <ele>46.329995</ele>
        <time>2021-10-10T08:25:53.000Z</time>
      </trkpt>
      <trkpt lat="42.121343" lon="-73.946552">
        <ele>45.22</ele>
        <time>2021-10-10T08:26:02.000Z</time>
      </trkpt>
      <trkpt lat="42.1216460021" lon="-73.9472259971">
        <ele>45.25</ele>
        <time>2021-10-10T08:26:09.000Z</time>
      </trkpt>
      <trkpt lat="42.121943" lon="-73.947897">
        <ele>46.010004</ele>
        <time>2021-10-10T08:26:15.000Z</time>
      </trkpt>
      <trkpt lat="42.122305" lon="-73.948635">
        <ele>49.879993</ele>
        <time>2021-10-10T08:26:22.000Z</time>
      </trkpt>
      <trkpt lat="42.122331" lon="-73.948651">
        <ele>49.899998</ele>
        <time>2021-10-10T08:26:22.000Z</time>
      </trkpt>
      <trkpt lat="42.122421" lon="-73.948199">
        <ele>49.990002</ele>
        <time>2021-10-10T08:26:26.000Z</time>
      </trkpt>
      <trkpt lat="42.122545" lon="-73.947851">
        <ele>49.899999</ele>
        <time>2021-10-10T08:26:29.000Z</time>
      </trkpt>
      <trkpt lat="42.122771" lon="-73.947565">
        <ele>49.980007</ele>
        <time>2021-10-10T08:26:32.000Z</time>
      </trkpt>
      <trkpt lat="42.123427" lon="-73.946962">
        <ele>50.540004</ele>
        <time>2021-10-10T08:26:41.000Z</time>
      </trkpt>
      <trkpt lat="42.123544" lon="-73.946778">
        <ele>50.999994</ele>
        <time>2021-10-10T08:26:43.000Z</time>
      </trkpt>
      <trkpt lat="42.123585" lon="-73.946679">
        <ele>51.339994</ele>
        <time>2021-10-10T08:26:44.000Z</time>
      </trkpt>
      <trkpt lat="42.123627" lon="-73.946491">
        <ele>52.300009</ele>
        <time>2021-10-10T08:26:46.000Z</time>
      </trkpt>
      <trkpt lat="42.124038" lon="-73.945928">
        <ele>56.899991</ele>
        <time>2021-10-10T08:26:53.000Z</time>
      </trkpt>
      <trkpt lat="42.124018" lon="-73.945929">
        <ele>56.880007</ele>
        <time>2021-10-10T08:26:53.000Z</time>
      </trkpt>
      <trkpt lat="42.12448" lon="-73.945298">
        <ele>58.410008</ele>
        <time>2021-10-10T08:27:00.000Z</time>
      </trkpt>
      <trkpt lat="42.1250170016" lon="-73.9446910051">
        <ele>59.000002</ele>
        <time>2021-10-10T08:27:08.000Z</time>
      </trkpt>
      <trkpt lat="42.125578" lon="-73.944092">
        <ele>58.879998</ele>
        <time>2021-10-10T08:27:16.000Z</time>
      </trkpt>
      <trkpt lat="42.12556" lon="-73.944095">
        <ele>58.879994</ele>
        <time>2021-10-10T08:27:16.000Z</time>
      </trkpt>
      <trkpt lat="42.125742" lon="-73.943891">
        <ele>58.920004</ele>
        <time>2021-10-10T08:27:19.000Z</time>
      </trkpt>
      <trkpt lat="42.1262440009" lon="-73.9434460034">
        <ele>59.000007</ele>
        <time>2021-10-10T08:27:26.000Z</time>
      </trkpt>
      <trkpt lat="42.126727" lon="-73.943001">
        <ele>57.019998</ele>
        <time>2021-10-10T08:27:33.000Z</time>
      </trkpt>
      <trkpt lat="42.127146" lon="-73.942742">
        <ele>55.680003</ele>
        <time>2021-10-10T08:27:38.000Z</time>
      </trkpt>
      <trkpt lat="42.127381" lon="-73.942609">
        <ele>54.049998</ele>
        <time>2021-10-10T08:27:41.000Z</time>
      </trkpt>
      <trkpt lat="42.127884" lon="-73.942426">
        <ele>51.530008</ele>
        <time>2021-10-10T08:27:47.000Z</time>
      </trkpt>
      <trkpt lat="42.128581" lon="-73.942324">
        <ele>49.319999</ele>
        <time>2021-10-10T08:27:55.000Z</time>
      </trkpt>
      <trkpt lat="42.128578" lon="-73.942345">
        <ele>49.349995</ele>
        <time>2021-10-10T08:27:55.000Z</time>
      </trkpt>
      <trkpt lat="42.1290309999" lon="-73.9422250009">
        <ele>48.130006</ele>
        <time>2021-10-10T08:28:00.000Z</time>
      </trkpt>
      <trkpt lat="42.129507" lon="-73.942114">
        <ele>48.300002</ele>
        <time>2021-10-10T08:28:05.000Z</time>
      </trkpt>
      <trkpt lat="42.129626" lon="-73.942078">
        <ele>48.280006</ele>
        <time>2021-10-10T08:28:06.000Z</time>
      </trkpt>
      <trkpt lat="42.129777" lon="-73.941939">
        <ele>47.889991</ele>
        <time>2021-10-10T08:28:08.000Z</time>
      </trkpt>
      <trkpt lat="42.129799" lon="-73.941886">
        <ele>47.889992</ele>
        <time>2021-10-10T08:28:09.000Z</time>
      </trkpt>
      <trkpt lat="42.129798" lon="-73.941896">
        <ele>47.899995</ele>
        <time>2021-10-10T08:28:09.000Z</time>
      </trkpt>
      <trkpt lat="42.129864" lon="-73.941743">
        <ele>47.720007</ele>
        <time>2021-10-10T08:28:10.000Z</time>
      </trkpt>
      <trkpt lat="42.129914" lon="-73.94153">
        <ele>47.599996</ele>
        <time>2021-10-10T08:28:12.000Z</time>
      </trkpt>
      <trkpt lat="42.1300540054" lon="-73.9407343369">
        <ele>48.079995</ele>
        <time>2021-10-10T08:28:19.000Z</time>
      </trkpt>
      <trkpt lat="42.1301920053" lon="-73.9399606704">
        <ele>49.319994</ele>
        <time>2021-10-10T08:28:26.000Z</time>
      </trkpt>
      <trkpt lat="42.130343" lon="-73.939175">
        <ele>51.540004</ele>
        <time>2021-10-10T08:28:33.000Z</time>
      </trkpt>
      <trkpt lat="42.130386" lon="-73.939045">
        <ele>51.540003</ele>
        <time>2021-10-10T08:28:34.000Z</time>
      </trkpt>
      <trkpt lat="42.130373" lon="-73.939034">
        <ele>51.570007</ele>
        <time>2021-10-10T08:28:34.000Z</time>
      </trkpt>
      <trkpt lat="42.130606" lon="-73.939153">
        <ele>51.580003</ele>
        <time>2021-10-10T08:28:37.000Z</time>
      </trkpt>
      <trkpt lat="42.131118" lon="-73.9392509993">
        <ele>51.850004</ele>
        <time>2021-10-10T08:28:43.000Z</time>
      </trkpt>
      <trkpt lat="42.13164" lon="-73.939347">
        <ele>52.010003</ele>
        <time>2021-10-10T08:28:49.000Z</time>
      </trkpt>
      <trkpt lat="42.131761" lon="-73.939392">
        <ele>51.939995</ele>
        <time>2021-10-10T08:28:50.000Z</time>
      </trkpt>
      <trkpt lat="42.13201" lon="-73.939594">
        <ele>51.239994</ele>
        <time>2021-10-10T08:28:53.000Z</time>
      </trkpt>
      <trkpt lat="42.132128" lon="-73.939692">
        <ele>50.049995</ele>
        <time>2021-10-10T08:28:55.000Z</time>
      </trkpt>
      <trkpt lat="42.132328" lon="-73.939959">
        <ele>49.539997</ele>
        <time>2021-10-10T08:28:58.000Z</time>
      </trkpt>
      <trkpt lat="42.132419" lon="-73.940103">
        <ele>49.109994</ele>
        <time>2021-10-10T08:29:00.000Z</time>
      </trkpt>
      <trkpt lat="42.1327940021" lon="-73.9407969959">
        <ele>48.300007</ele>
        <time>2021-10-10T08:29:07.000Z</time>
      </trkpt>
      <trkpt lat="42.133174" lon="-73.941504">
        <ele>48.460005</ele>
        <time>2021-10-10T08:29:14.000Z</time>
      </trkpt>
      <trkpt lat="42.133293" lon="-73.941717">
        <ele>49.22</ele>
        <time>2021-10-10T08:29:16.000Z</time>
      </trkpt>
      <trkpt lat="42.133453" lon="-73.94198">
        <ele>51.059991</ele>
        <time>2021-10-10T08:29:19.000Z</time>
      </trkpt>
      <trkpt lat="42.133769" lon="-73.942255">
        <ele>53.839994</ele>
        <time>2021-10-10T08:29:23.000Z</time>
      </trkpt>
      <trkpt lat="42.133813" lon="-73.942336">
        <ele>53.830004</ele>
        <time>2021-10-10T08:29:24.000Z</time>
      </trkpt>
      <trkpt lat="42.134093" lon="-73.943417">
        <ele>50.689993</ele>
        <time>2021-10-10T08:29:33.000Z</time>
      </trkpt>
      <trkpt lat="42.134151" lon="-73.94355">
        <ele>49.040009</ele>
        <time>2021-10-10T08:29:34.000Z</time>
      </trkpt>
      <trkpt lat="42.134192" lon="-73.943587">
        <ele>48.820003</ele>
        <time>2021-10-10T08:29:35.000Z</time>
      </trkpt>
      <trkpt lat="42.1345700007" lon="-73.9439689977">
        <ele>47.510006</ele>
        <time>2021-10-10T08:29:40.000Z</time>
      </trkpt>
      <trkpt lat="42.134949" lon="-73.944346">
        <ele>47.530001</ele>
        <time>2021-10-10T08:29:45.000Z</time>
      </trkpt>
      <trkpt lat="42.1354100013" lon="-73.9448649964">
        <ele>47.850005</ele>
        <time>2021-10-10T08:29:52.000Z</time>
      </trkpt>
      <trkpt lat="42.13587" lon="-73.945385">
        <ele>49.219998</ele>
        <time>2021-10-10T08:29:59.000Z</time>
      </trkpt>
      <trkpt lat="42.136048" lon="-73.945519">
        <ele>50.560007</ele>
        <time>2021-10-10T08:30:01.000Z</time>
      </trkpt>
      <trkpt lat="42.136198" lon="-73.945563">
        <ele>51.169994</ele>
        <time>2021-10-10T08:30:03.000Z</time>
      </trkpt>
      <trkpt lat="42.136341" lon="-73.945609">
        <ele>51.169995</ele>
        <time>2021-10-10T08:30:05.000Z</time>
      </trkpt>
      <trkpt lat="42.136902" lon="-73.945371">
        <ele>52.309999</ele>
        <time>2021-10-10T08:30:12.000Z</time>
      </trkpt>
      <trkpt lat="42.136998" lon="-73.94534">
        <ele>52.229998</ele>
        <time>2021-10-10T08:30:13.000Z</time>
      </trkpt>
      <trkpt lat="42.137232" lon="-73.945373">
        <ele>51.610006</ele>
        <time>2021-10-10T08:30:16.000Z</time>
      </trkpt>
      <trkpt lat="42.137351" lon="-73.945426">
        <ele>50.909997</ele>
        <time>2021-10-10T08:30:17.000Z</time>
      </trkpt>
      <trkpt lat="42.137458" lon="-73.945559">
        <ele>50.590002</ele>
        <time>2021-10-10T08:30:19.000Z</time>
      </trkpt>
      <trkpt lat="42.137551" lon="-73.945774">
        <ele>50.309994</ele>
        <time>2021-10-10T08:30:21.000Z</time>
      </trkpt>
      <trkpt lat="42.137827" lon="-73.946571">
        <ele>48.119995</ele>
        <time>2021-10-10T08:30:28.000Z</time>
      </trkpt>
      <trkpt lat="42.137999" lon="-73.946931">
        <ele>47.87</ele>
        <time>2021-10-10T08:30:32.000Z</time>
      </trkpt>
      <trkpt lat="42.137861" lon="-73.946667">
        <ele>47.940004</ele>
        <time>2021-10-10T08:30:35.000Z</time>
      </trkpt>
      <trkpt lat="42.1382723402" lon="-73.9475693222">
        <ele>48.869991</ele>
        <time>2021-10-10T08:30:44.000Z</time>
      </trkpt>
      <trkpt lat="42.1386536736" lon="-73.9484656555">
        <ele>51.959994</ele>
        <time>2021-10-10T08:30:53.000Z</time>
      </trkpt>
      <trkpt lat="42.139054" lon="-73.949356">
        <ele>54.010003</ele>
        <time>2021-10-10T08:31:02.000Z</time>
      </trkpt>
      <trkpt lat="42.1394243399" lon="-73.9502149895">
        <ele>52.619991</ele>
        <time>2021-10-10T08:31:10.000Z</time>
      </trkpt>
      <trkpt lat="42.1398236733" lon="-73.9510899895">
        <ele>49.769993</ele>
        <time>2021-10-10T08:31:18.000Z</time>
      </trkpt>
      <trkpt lat="42.140196" lon="-73.951955">
        <ele>50.179991</ele>
        <time>2021-10-10T08:31:26.000Z</time>
      </trkpt>
      <trkpt lat="42.140473" lon="-73.952409">
        <ele>50.179997</ele>
        <time>2021-10-10T08:31:31.000Z</time>
      </trkpt>
      <trkpt lat="42.1408910014" lon="-73.952978996">
        <ele>50.000006</ele>
        <time>2021-10-10T08:31:38.000Z</time>
      </trkpt>
      <trkpt lat="42.141323" lon="-73.953564">
        <ele>50.470002</ele>
        <time>2021-10-10T08:31:45.000Z</time>
      </trkpt>
      <trkpt lat="42.141327" lon="-73.953573">
        <ele>50.470005</ele>
        <time>2021-10-10T08:31:45.000Z</time>
      </trkpt>
      <trkpt lat="42.1408980015" lon="-73.952980996">
        <ele>50</ele>
        <time>2021-10-10T08:31:52.000Z</time>
      </trkpt>
      <trkpt lat="42.14047" lon="-73.952398">
        <ele>50.179995</ele>
        <time>2021-10-10T08:31:59.000Z</time>
      </trkpt>
      <trkpt lat="42.140193" lon="-73.951957">
        <ele>50.179995</ele>
        <time>2021-10-10T08:32:04.000Z</time>
      </trkpt>
      <trkpt lat="42.1398090175" lon="-73.9510633054">
        <ele>49.770006</ele>
        <time>2021-10-10T08:32:13.000Z</time>
      </trkpt>
      <trkpt lat="42.1394070279" lon="-73.9501626219">
        <ele>52.619994</ele>
        <time>2021-10-10T08:32:22.000Z</time>
      </trkpt>
      <trkpt lat="42.1390130314" lon="-73.9492719497">
        <ele>53.979991</ele>
        <time>2021-10-10T08:32:31.000Z</time>
      </trkpt>
      <trkpt lat="42.1386140279" lon="-73.9483682886">
        <ele>51.959994</ele>
        <time>2021-10-10T08:32:40.000Z</time>
      </trkpt>
      <trkpt lat="42.1382190175" lon="-73.9474766387">
        <ele>48.500006</ele>
        <time>2021-10-10T08:32:49.000Z</time>
      </trkpt>
      <trkpt lat="42.137828" lon="-73.946573">
        <ele>48.120004</ele>
        <time>2021-10-10T08:32:58.000Z</time>
      </trkpt>
      <trkpt lat="42.137566" lon="-73.945776">
        <ele>50.310007</ele>
        <time>2021-10-10T08:33:05.000Z</time>
      </trkpt>
      <trkpt lat="42.137445" lon="-73.945556">
        <ele>50.590008</ele>
        <time>2021-10-10T08:33:07.000Z</time>
      </trkpt>
      <trkpt lat="42.137358" lon="-73.945439">
        <ele>50.910007</ele>
        <time>2021-10-10T08:33:08.000Z</time>
      </trkpt>
      <trkpt lat="42.137235" lon="-73.945376">
        <ele>51.61</ele>
        <time>2021-10-10T08:33:09.000Z</time>
      </trkpt>
      <trkpt lat="42.136994" lon="-73.945337">
        <ele>52.230009</ele>
        <time>2021-10-10T08:33:12.000Z</time>
      </trkpt>
      <trkpt lat="42.136912" lon="-73.945376">
        <ele>52.32</ele>
        <time>2021-10-10T08:33:13.000Z</time>
      </trkpt>
      <trkpt lat="42.136905" lon="-73.945383">
        <ele>52.320007</ele>
        <time>2021-10-10T08:33:13.000Z</time>
      </trkpt>
      <trkpt lat="42.136334" lon="-73.945613">
        <ele>51.169992</ele>
        <time>2021-10-10T08:33:20.000Z</time>
      </trkpt>
      <trkpt lat="42.136195" lon="-73.945562">
        <ele>51.169991</ele>
        <time>2021-10-10T08:33:22.000Z</time>
      </trkpt>
      <trkpt lat="42.136052" lon="-73.945513">
        <ele>50.560008</ele>
        <time>2021-10-10T08:33:24.000Z</time>
      </trkpt>
      <trkpt lat="42.135861" lon="-73.945388">
        <ele>49.220001</ele>
        <time>2021-10-10T08:33:26.000Z</time>
      </trkpt>
      <trkpt lat="42.135417001" lon="-73.9448669961">
        <ele>47.849992</ele>
        <time>2021-10-10T08:33:33.000Z</time>
      </trkpt>
      <trkpt lat="42.134944" lon="-73.944348">
        <ele>47.530004</ele>
        <time>2021-10-10T08:33:40.000Z</time>
      </trkpt>
      <trkpt lat="42.134329" lon="-73.943723">
        <ele>47.839999</ele>
        <time>2021-10-10T08:33:49.000Z</time>
      </trkpt>
      <trkpt lat="42.134176" lon="-73.943561">
        <ele>49.009998</ele>
        <time>2021-10-10T08:33:51.000Z</time>
      </trkpt>
      <trkpt lat="42.134107" lon="-73.943417">
        <ele>50.689996</ele>
        <time>2021-10-10T08:33:52.000Z</time>
      </trkpt>
      <trkpt lat="42.133807" lon="-73.942334">
        <ele>53.830002</ele>
        <time>2021-10-10T08:34:02.000Z</time>
      </trkpt>
      <trkpt lat="42.133762" lon="-73.942255">
        <ele>53.839991</ele>
        <time>2021-10-10T08:34:03.000Z</time>
      </trkpt>
      <trkpt lat="42.133468" lon="-73.941973">
        <ele>51.060005</ele>
        <time>2021-10-10T08:34:07.000Z</time>
      </trkpt>
      <trkpt lat="42.133288" lon="-73.941717">
        <ele>48.989994</ele>
        <time>2021-10-10T08:34:10.000Z</time>
      </trkpt>
      <trkpt lat="42.1328930024" lon="-73.9409649953">
        <ele>48.300003</ele>
        <time>2021-10-10T08:34:18.000Z</time>
      </trkpt>
      <trkpt lat="42.132485" lon="-73.940224">
        <ele>49.079993</ele>
        <time>2021-10-10T08:34:26.000Z</time>
      </trkpt>
      <trkpt lat="42.132328" lon="-73.939951">
        <ele>49.539995</ele>
        <time>2021-10-10T08:34:29.000Z</time>
      </trkpt>
      <trkpt lat="42.132017" lon="-73.939595">
        <ele>51.240002</ele>
        <time>2021-10-10T08:34:34.000Z</time>
      </trkpt>
      <trkpt lat="42.131777" lon="-73.939394">
        <ele>51.940004</ele>
        <time>2021-10-10T08:34:37.000Z</time>
      </trkpt>
      <trkpt lat="42.131635" lon="-73.939337">
        <ele>52.009992</ele>
        <time>2021-10-10T08:34:39.000Z</time>
      </trkpt>
      <trkpt lat="42.1311120001" lon="-73.9392529993">
        <ele>51.849995</ele>
        <time>2021-10-10T08:34:45.000Z</time>
      </trkpt>
      <trkpt lat="42.130591" lon="-73.939157">
        <ele>51.579992</ele>
        <time>2021-10-10T08:34:51.000Z</time>
      </trkpt>
      <trkpt lat="42.130383" lon="-73.939026">
        <ele>51.570008</ele>
        <time>2021-10-10T08:34:54.000Z</time>
      </trkpt>
      <trkpt lat="42.130386" lon="-73.939047">
        <ele>51.540004</ele>
        <time>2021-10-10T08:34:54.000Z</time>
      </trkpt>
      <trkpt lat="42.130344" lon="-73.939175">
        <ele>51.540005</ele>
        <time>2021-10-10T08:34:55.000Z</time>
      </trkpt>
      <trkpt lat="42.1302080054" lon="-73.93995767">
        <ele>49.320005</ele>
        <time>2021-10-10T08:35:02.000Z</time>
      </trkpt>
      <trkpt lat="42.1300570054" lon="-73.9407493366">
        <ele>48.080008</ele>
        <time>2021-10-10T08:35:09.000Z</time>
      </trkpt>
      <trkpt lat="42.129915" lon="-73.941531">
        <ele>47.6</ele>
        <time>2021-10-10T08:35:16.000Z</time>
      </trkpt>
      <trkpt lat="42.129872" lon="-73.941749">
        <ele>47.720006</ele>
        <time>2021-10-10T08:35:18.000Z</time>
      </trkpt>
      <trkpt lat="42.129779" lon="-73.941914">
        <ele>47.940004</ele>
        <time>2021-10-10T08:35:20.000Z</time>
      </trkpt>
      <trkpt lat="42.129799" lon="-73.941896">
        <ele>47.94</ele>
        <time>2021-10-10T08:35:20.000Z</time>
      </trkpt>
      <trkpt lat="42.129612" lon="-73.942076">
        <ele>48.279991</ele>
        <time>2021-10-10T08:35:23.000Z</time>
      </trkpt>
      <trkpt lat="42.129517" lon="-73.942107">
        <ele>48.299996</ele>
        <time>2021-10-10T08:35:24.000Z</time>
      </trkpt>
      <trkpt lat="42.1290460003" lon="-73.9422170008">
        <ele>48.179999</ele>
        <time>2021-10-10T08:35:29.000Z</time>
      </trkpt>
      <trkpt lat="42.128562" lon="-73.942348">
        <ele>49.359991</ele>
        <time>2021-10-10T08:35:34.000Z</time>
      </trkpt>
      <trkpt lat="42.128579" lon="-73.942325">
        <ele>49.359993</ele>
        <time>2021-10-10T08:35:34.000Z</time>
      </trkpt>
      <trkpt lat="42.127892" lon="-73.942434">
        <ele>51.950008</ele>
        <time>2021-10-10T08:35:42.000Z</time>
      </trkpt>
      <trkpt lat="42.127393" lon="-73.942608">
        <ele>54.560003</ele>
        <time>2021-10-10T08:35:48.000Z</time>
      </trkpt>
      <trkpt lat="42.127144" lon="-73.942749">
        <ele>55.679995</ele>
        <time>2021-10-10T08:35:51.000Z</time>
      </trkpt>
      <trkpt lat="42.126734" lon="-73.943006">
        <ele>57.019995</ele>
        <time>2021-10-10T08:35:56.000Z</time>
      </trkpt>
      <trkpt lat="42.1261790011" lon="-73.9435130044">
        <ele>59.089993</ele>
        <time>2021-10-10T08:36:03.000Z</time>
      </trkpt>
      <trkpt lat="42.125638" lon="-73.944023">
        <ele>58.920005</ele>
        <time>2021-10-10T08:36:10.000Z</time>
      </trkpt>
      <trkpt lat="42.1250500016" lon="-73.9446540058">
        <ele>59.000002</ele>
        <time>2021-10-10T08:36:18.000Z</time>
      </trkpt>
      <trkpt lat="42.124479" lon="-73.945299">
        <ele>58.410002</ele>
        <time>2021-10-10T08:36:26.000Z</time>
      </trkpt>
      <trkpt lat="42.124015" lon="-73.945939">
        <ele>56.860002</ele>
        <time>2021-10-10T08:36:33.000Z</time>
      </trkpt>
      <trkpt lat="42.124018" lon="-73.945946">
        <ele>56.829992</ele>
        <time>2021-10-10T08:36:33.000Z</time>
      </trkpt>
      <trkpt lat="42.123625" lon="-73.946501">
        <ele>52.299996</ele>
        <time>2021-10-10T08:36:39.000Z</time>
      </trkpt>
      <trkpt lat="42.123581" lon="-73.946677">
        <ele>51.340004</ele>
        <time>2021-10-10T08:36:41.000Z</time>
      </trkpt>
      <trkpt lat="42.123553" lon="-73.946776">
        <ele>51.000007</ele>
        <time>2021-10-10T08:36:42.000Z</time>
      </trkpt>
      <trkpt lat="42.123427" lon="-73.946952">
        <ele>50.540003</ele>
        <time>2021-10-10T08:36:44.000Z</time>
      </trkpt>
      <trkpt lat="42.122774" lon="-73.947578">
        <ele>49.980006</ele>
        <time>2021-10-10T08:36:53.000Z</time>
      </trkpt>
      <trkpt lat="42.122546" lon="-73.94785">
        <ele>49.899993</ele>
        <time>2021-10-10T08:36:56.000Z</time>
      </trkpt>
      <trkpt lat="42.122432" lon="-73.948208">
        <ele>49.989995</ele>
        <time>2021-10-10T08:36:59.000Z</time>
      </trkpt>
      <trkpt lat="42.122321" lon="-73.948677">
        <ele>49.880008</ele>
        <time>2021-10-10T08:37:03.000Z</time>
      </trkpt>
      <trkpt lat="42.122309" lon="-73.948622">
        <ele>49.880006</ele>
        <time>2021-10-10T08:37:03.000Z</time>
      </trkpt>
      <trkpt lat="42.121931" lon="-73.947891">
        <ele>45.859997</ele>
        <time>2021-10-10T08:37:10.000Z</time>
      </trkpt>
      <trkpt lat="42.1216330018" lon="-73.9472169966">
        <ele>45.249998</ele>
        <time>2021-10-10T08:37:16.000Z</time>
      </trkpt>
      <trkpt lat="42.121346" lon="-73.946552">
        <ele>45.200001</ele>
        <time>2021-10-10T08:37:22.000Z</time>
      </trkpt>
      <trkpt lat="42.120958" lon="-73.945587">
        <ele>46.329991</ele>
        <time>2021-10-10T08:37:31.000Z</time>
      </trkpt>
      <trkpt lat="42.120729" lon="-73.945289">
        <ele>46.559995</ele>
        <time>2021-10-10T08:37:35.000Z</time>
      </trkpt>
      <trkpt lat="42.120663" lon="-73.945154">
        <ele>46.169994</ele>
        <time>2021-10-10T08:37:36.000Z</time>
      </trkpt>
      <trkpt lat="42.120592" lon="-73.944703">
        <ele>44.339995</ele>
        <time>2021-10-10T08:37:40.000Z</time>
      </trkpt>
      <trkpt lat="42.120488" lon="-73.944355">
        <ele>43.96</ele>
        <time>2021-10-10T08:37:43.000Z</time>
      </trkpt>
      <trkpt lat="42.1202400017" lon="-73.9437329974">
        <ele>43.539998</ele>
        <time>2021-10-10T08:37:49.000Z</time>
      </trkpt>
      <trkpt lat="42.120003" lon="-73.943099">
        <ele>43.339997</ele>
        <time>2021-10-10T08:37:55.000Z</time>
      </trkpt>
      <trkpt lat="42.1197156711" lon="-73.9423776602">
        <ele>43.280003</ele>
        <time>2021-10-10T08:38:02.000Z</time>
      </trkpt>
      <trkpt lat="42.1194313377" lon="-73.9416643268">
        <ele>43.309999</ele>
        <time>2021-10-10T08:38:09.000Z</time>
      </trkpt>
      <trkpt lat="42.119141" lon="-73.940941">
        <ele>43.439999</ele>
        <time>2021-10-10T08:38:16.000Z</time>
      </trkpt>
      <trkpt lat="42.118739" lon="-73.940054">
        <ele>43.359993</ele>
        <time>2021-10-10T08:38:25.000Z</time>
      </trkpt>
      <trkpt lat="42.1183613379" lon="-73.939328991">
        <ele>43.339997</ele>
        <time>2021-10-10T08:38:32.000Z</time>
      </trkpt>
      <trkpt lat="42.1179686712" lon="-73.938586991">
        <ele>44.219993</ele>
        <time>2021-10-10T08:38:40.000Z</time>
      </trkpt>
      <trkpt lat="42.117587" lon="-73.937863">
        <ele>45.929992</ele>
        <time>2021-10-10T08:38:47.000Z</time>
      </trkpt>
      <trkpt lat="42.117521" lon="-73.937685">
        <ele>45.930003</ele>
        <time>2021-10-10T08:38:49.000Z</time>
      </trkpt>
      <trkpt lat="42.117437" lon="-73.937045">
        <ele>47.469999</ele>
        <time>2021-10-10T08:38:54.000Z</time>
      </trkpt>
      <trkpt lat="42.1173560035" lon="-73.9361609992">
        <ele>47.029995</ele>
        <time>2021-10-10T08:39:01.000Z</time>
      </trkpt>
      <trkpt lat="42.117266" lon="-73.935268">
        <ele>47.490002</ele>
        <time>2021-10-10T08:39:08.000Z</time>
      </trkpt>
      <trkpt lat="42.117213" lon="-73.934957">
        <ele>48.069996</ele>
        <time>2021-10-10T08:39:11.000Z</time>
      </trkpt>
      <trkpt lat="42.117199" lon="-73.934969">
        <ele>48.060009</ele>
        <time>2021-10-10T08:39:11.000Z</time>
      </trkpt>
      <trkpt lat="42.116972" lon="-73.935181">
        <ele>47.919997</ele>
        <time>2021-10-10T08:39:14.000Z</time>
      </trkpt>
      <trkpt lat="42.116642" lon="-73.935437">
        <ele>47.379995</ele>
        <time>2021-10-10T08:39:18.000Z</time>
      </trkpt>
      <trkpt lat="42.116469" lon="-73.935539">
        <ele>47.220003</ele>
        <time>2021-10-10T08:39:20.000Z</time>
      </trkpt>
      <trkpt lat="42.116187" lon="-73.935626">
        <ele>47.470004</ele>
        <time>2021-10-10T08:39:23.000Z</time>
      </trkpt>
      <trkpt lat="42.1154320002" lon="-73.9358163377">
        <ele>51.519996</ele>
        <time>2021-10-10T08:39:32.000Z</time>
      </trkpt>
      <trkpt lat="42.1146670002" lon="-73.9359976711">
        <ele>55.389993</ele>
        <time>2021-10-10T08:39:41.000Z</time>
      </trkpt>
      <trkpt lat="42.113906" lon="-73.936189">
        <ele>55.359992</ele>
        <time>2021-10-10T08:39:50.000Z</time>
      </trkpt>
      <trkpt lat="42.113418" lon="-73.936247">
        <ele>54.599998</ele>
        <time>2021-10-10T08:39:55.000Z</time>
      </trkpt>
      <trkpt lat="42.112971" lon="-73.936265">
        <ele>53.840003</ele>
        <time>2021-10-10T08:40:00.000Z</time>
      </trkpt>
      <trkpt lat="42.112766" lon="-73.936242">
        <ele>53.220003</ele>
        <time>2021-10-10T08:40:02.000Z</time>
      </trkpt>
      <trkpt lat="42.112517" lon="-73.936196">
        <ele>51.949995</ele>
        <time>2021-10-10T08:40:05.000Z</time>
      </trkpt>
      <trkpt lat="42.11178" lon="-73.935937">
        <ele>51.189999</ele>
        <time>2021-10-10T08:40:13.000Z</time>
      </trkpt>
      <trkpt lat="42.111585" lon="-73.935937">
        <ele>51.940005</ele>
        <time>2021-10-10T08:40:15.000Z</time>
      </trkpt>
      <trkpt lat="42.111387" lon="-73.93598">
        <ele>51.940009</ele>
        <time>2021-10-10T08:40:17.000Z</time>
      </trkpt>
      <trkpt lat="42.111103" lon="-73.936073">
        <ele>52.039992</ele>
        <time>2021-10-10T08:40:20.000Z</time>
      </trkpt>
      <trkpt lat="42.1104790018" lon="-73.9364495108">
        <ele>52.460007</ele>
        <time>2021-10-10T08:40:28.000Z</time>
      </trkpt>
      <trkpt lat="42.1098580023" lon="-73.9368080144">
        <ele>53.140006</ele>
        <time>2021-10-10T08:40:36.000Z</time>
      </trkpt>
      <trkpt lat="42.1092480018" lon="-73.9371735108">
        <ele>53.810008</ele>
        <time>2021-10-10T08:40:43.000Z</time>
      </trkpt>
      <trkpt lat="42.10862" lon="-73.937552">
        <ele>53.210008</ele>
        <time>2021-10-10T08:40:51.000Z</time>
      </trkpt>
      <trkpt lat="42.108449" lon="-73.937633">
        <ele>52.929994</ele>
        <time>2021-10-10T08:40:53.000Z</time>
      </trkpt>
      <trkpt lat="42.108049" lon="-73.937728">
        <ele>51.319997</ele>
        <time>2021-10-10T08:40:58.000Z</time>
      </trkpt>
      <trkpt lat="42.107711" lon="-73.937769">
        <ele>49.820009</ele>
        <time>2021-10-10T08:41:02.000Z</time>
      </trkpt>
      <trkpt lat="42.1069170001" lon="-73.9378220015">
        <ele>46.400005</ele>
        <time>2021-10-10T08:41:11.000Z</time>
      </trkpt>
      <trkpt lat="42.1060980002" lon="-73.9378840015">
        <ele>45.819997</ele>
        <time>2021-10-10T08:41:20.000Z</time>
      </trkpt>
      <trkpt lat="42.105284" lon="-73.937959">
        <ele>47.079991</ele>
        <time>2021-10-10T08:41:29.000Z</time>
      </trkpt>
      <trkpt lat="42.105053" lon="-73.937939">
        <ele>47.609993</ele>
        <time>2021-10-10T08:41:32.000Z</time>
      </trkpt>
      <trkpt lat="42.104523" lon="-73.9378429991">
        <ele>49.860009</ele>
        <time>2021-10-10T08:41:38.000Z</time>
      </trkpt>
      <trkpt lat="42.103998" lon="-73.937723">
        <ele>51.620004</ele>
        <time>2021-10-10T08:41:44.000Z</time>
      </trkpt>
      <trkpt lat="42.103378" lon="-73.937542">
        <ele>51.150001</ele>
        <time>2021-10-10T08:41:51.000Z</time>
      </trkpt>
      <trkpt lat="42.103008" lon="-73.937508">
        <ele>50.229994</ele>
        <time>2021-10-10T08:41:55.000Z</time>
      </trkpt>
      <trkpt lat="42.102682" lon="-73.937541">
        <ele>49.010007</ele>
        <time>2021-10-10T08:41:59.000Z</time>
      </trkpt>
      <trkpt lat="42.102156" lon="-73.937682">
        <ele>47.879994</ele>
        <time>2021-10-10T08:42:05.000Z</time>
      </trkpt>
      <trkpt lat="42.1016390003" lon="-73.937925002">
        <ele>47.210005</ele>
        <time>2021-10-10T08:42:11.000Z</time>
      </trkpt>
      <trkpt lat="42.101116" lon="-73.938162">
        <ele>47.140006</ele>
        <time>2021-10-10T08:42:17.000Z</time>
      </trkpt>
      <trkpt lat="42.1003690003" lon="-73.9384710035">
        <ele>47.110009</ele>
        <time>2021-10-10T08:42:26.000Z</time>
      </trkpt>
      <trkpt lat="42.099629" lon="-73.938767">
        <ele>48.199993</ele>
        <time>2021-10-10T08:42:35.000Z</time>
      </trkpt>
      <trkpt lat="42.099353" lon="-73.938849">
        <ele>49.579991</ele>
        <time>2021-10-10T08:42:38.000Z</time>
      </trkpt>
      <trkpt lat="42.099031" lon="-73.938871">
        <ele>51.949999</ele>
        <time>2021-10-10T08:42:42.000Z</time>
      </trkpt>
      <trkpt lat="42.098855" lon="-73.938875">
        <ele>52.770002</ele>
        <time>2021-10-10T08:42:44.000Z</time>
      </trkpt>
      <trkpt lat="42.098825" lon="-73.93888">
        <ele>52.82</ele>
        <time>2021-10-10T08:42:44.000Z</time>
      </trkpt>
      <trkpt lat="42.098285" lon="-73.9389">
        <ele>54.770009</ele>
        <time>2021-10-10T08:42:50.000Z</time>
      </trkpt>
      <trkpt lat="42.097492" lon="-73.939024">
        <ele>56.299999</ele>
        <time>2021-10-10T08:42:59.000Z</time>
      </trkpt>
      <trkpt lat="42.096623" lon="-73.9392">
        <ele>58.640004</ele>
        <time>2021-10-10T08:43:09.000Z</time>
      </trkpt>
      <trkpt lat="42.095956" lon="-73.939421">
        <ele>60.589996</ele>
        <time>2021-10-10T08:43:17.000Z</time>
      </trkpt>
      <trkpt lat="42.095492" lon="-73.9396170015">
        <ele>59.659997</ele>
        <time>2021-10-10T08:43:22.000Z</time>
      </trkpt>
      <trkpt lat="42.095032" lon="-73.93981">
        <ele>57.850005</ele>
        <time>2021-10-10T08:43:27.000Z</time>
      </trkpt>
      <trkpt lat="42.094621" lon="-73.939961">
        <ele>55.779997</ele>
        <time>2021-10-10T08:43:32.000Z</time>
      </trkpt>
      <trkpt lat="42.094432" lon="-73.939991">
        <ele>54.980003</ele>
        <time>2021-10-10T08:43:34.000Z</time>
      </trkpt>
      <trkpt lat="42.094073" lon="-73.939973">
        <ele>54.420006</ele>
        <time>2021-10-10T08:43:38.000Z</time>
      </trkpt>
      <trkpt lat="42.093246" lon="-73.939754">
        <ele>52.420001</ele>
        <time>2021-10-10T08:43:47.000Z</time>
      </trkpt>
      <trkpt lat="42.092855" lon="-73.939685">
        <ele>51.039992</ele>
        <time>2021-10-10T08:43:51.000Z</time>
      </trkpt>
      <trkpt lat="42.0923729999" lon="-73.9396419997">
        <ele>49.120003</ele>
        <time>2021-10-10T08:43:56.000Z</time>
      </trkpt>
      <trkpt lat="42.091877" lon="-73.939614">
        <ele>48.269992</ele>
        <time>2021-10-10T08:44:02.000Z</time>
      </trkpt>
      <trkpt lat="42.091435" lon="-73.939646">
        <ele>47.209994</ele>
        <time>2021-10-10T08:44:07.000Z</time>
      </trkpt>
      <trkpt lat="42.090692" lon="-73.93979">
        <ele>46.429997</ele>
        <time>2021-10-10T08:44:15.000Z</time>
      </trkpt>
      <trkpt lat="42.090578" lon="-73.939833">
        <ele>46.409991</ele>
        <time>2021-10-10T08:44:16.000Z</time>
      </trkpt>
      <trkpt lat="42.090353" lon="-73.939978">
        <ele>46.619998</ele>
        <time>2021-10-10T08:44:19.000Z</time>
      </trkpt>
      <trkpt lat="42.090013" lon="-73.940273">
        <ele>46.859998</ele>
        <time>2021-10-10T08:44:23.000Z</time>
      </trkpt>
      <trkpt lat="42.089712" lon="-73.940676">
        <ele>47.180008</ele>
        <time>2021-10-10T08:44:28.000Z</time>
      </trkpt>
      <trkpt lat="42.08947" lon="-73.940951">
        <ele>47.839995</ele>
        <time>2021-10-10T08:44:32.000Z</time>
      </trkpt>
      <trkpt lat="42.089258" lon="-73.941144">
        <ele>48.720007</ele>
        <time>2021-10-10T08:44:35.000Z</time>
      </trkpt>
      <trkpt lat="42.08882" lon="-73.941448">
        <ele>51.819994</ele>
        <time>2021-10-10T08:44:40.000Z</time>
      </trkpt>
      <trkpt lat="42.088516" lon="-73.941611">
        <ele>53.219998</ele>
        <time>2021-10-10T08:44:44.000Z</time>
      </trkpt>
      <trkpt lat="42.088309" lon="-73.941673">
        <ele>53.809997</ele>
        <time>2021-10-10T08:44:46.000Z</time>
      </trkpt>
      <trkpt lat="42.088113" lon="-73.941673">
        <ele>53.960005</ele>
        <time>2021-10-10T08:44:48.000Z</time>
      </trkpt>
      <trkpt lat="42.087392" lon="-73.941723">
        <ele>52.369995</ele>
        <time>2021-10-10T08:44:56.000Z</time>
      </trkpt>
      <trkpt lat="42.086806" lon="-73.941846">
        <ele>51.239996</ele>
        <time>2021-10-10T08:45:03.000Z</time>
      </trkpt>
      <trkpt lat="42.0862260002" lon="-73.9420530018">
        <ele>51.219992</ele>
        <time>2021-10-10T08:45:10.000Z</time>
      </trkpt>
      <trkpt lat="42.085659" lon="-73.942241">
        <ele>50.360007</ele>
        <time>2021-10-10T08:45:16.000Z</time>
      </trkpt>
      <trkpt lat="42.085325" lon="-73.942414">
        <ele>49.370008</ele>
        <time>2021-10-10T08:45:20.000Z</time>
      </trkpt>
      <trkpt lat="42.084977" lon="-73.942646">
        <ele>47.29</ele>
        <time>2021-10-10T08:45:24.000Z</time>
      </trkpt>
      <trkpt lat="42.084418" lon="-73.943225">
        <ele>42.890001</ele>
        <time>2021-10-10T08:45:32.000Z</time>
      </trkpt>
      <trkpt lat="42.084181" lon="-73.943399">
        <ele>42.860002</ele>
        <time>2021-10-10T08:45:35.000Z</time>
      </trkpt>
      <trkpt lat="42.083694" lon="-73.943714">
        <ele>42.579995</ele>
        <time>2021-10-10T08:45:41.000Z</time>
      </trkpt>
      <trkpt lat="42.0829790002" lon="-73.9438363361">
        <ele>43.779997</ele>
        <time>2021-10-10T08:45:49.000Z</time>
      </trkpt>
      <trkpt lat="42.0822500002" lon="-73.9439726695">
        <ele>44.619998</ele>
        <time>2021-10-10T08:45:57.000Z</time>
      </trkpt>
      <trkpt lat="42.081523" lon="-73.944099">
        <ele>46.470009</ele>
        <time>2021-10-10T08:46:05.000Z</time>
      </trkpt>
      <trkpt lat="42.080734" lon="-73.944121">
        <ele>46.729992</ele>
        <time>2021-10-10T08:46:14.000Z</time>
      </trkpt>
      <trkpt lat="42.080542" lon="-73.944095">
        <ele>46.849993</ele>
        <time>2021-10-10T08:46:16.000Z</time>
      </trkpt>
      <trkpt lat="42.080355" lon="-73.944126">
        <ele>46.940009</ele>
        <time>2021-10-10T08:46:18.000Z</time>
      </trkpt>
      <trkpt lat="42.080362" lon="-73.944141">
        <ele>46.920007</ele>
        <time>2021-10-10T08:46:18.000Z</time>
      </trkpt>
      <trkpt lat="42.080278" lon="-73.944313">
        <ele>46.289992</ele>
        <time>2021-10-10T08:46:20.000Z</time>
      </trkpt>
      <trkpt lat="42.0800300054" lon="-73.9454230042">
        <ele>45.540007</ele>
        <time>2021-10-10T08:46:30.000Z</time>
      </trkpt>
      <trkpt lat="42.079781" lon="-73.946537">
        <ele>46.799999</ele>
        <time>2021-10-10T08:46:40.000Z</time>
      </trkpt>
      <trkpt lat="42.079708" lon="-73.946896">
        <ele>47.020002</ele>
        <time>2021-10-10T08:46:43.000Z</time>
      </trkpt>
      <trkpt lat="42.0793330096" lon="-73.9479480123">
        <ele>47.579996</ele>
        <time>2021-10-10T08:46:53.000Z</time>
      </trkpt>
      <trkpt lat="42.0789570095" lon="-73.9490000123">
        <ele>47.259995</ele>
        <time>2021-10-10T08:47:03.000Z</time>
      </trkpt>
      <trkpt lat="42.078592" lon="-73.950041">
        <ele>47.030004</ele>
        <time>2021-10-10T08:47:13.000Z</time>
      </trkpt>
      <trkpt lat="42.0783160054" lon="-73.9508400067">
        <ele>46.699994</ele>
        <time>2021-10-10T08:47:20.000Z</time>
      </trkpt>
      <trkpt lat="42.0780550054" lon="-73.9516360067">
        <ele>46.600001</ele>
        <time>2021-10-10T08:47:27.000Z</time>
      </trkpt>
      <trkpt lat="42.077789" lon="-73.952424">
        <ele>46.739997</ele>
        <time>2021-10-10T08:47:34.000Z</time>
      </trkpt>
      <trkpt lat="42.0771860007" lon="-73.9521396614">
        <ele>46.190009</ele>
        <time>2021-10-10T08:47:41.000Z</time>
      </trkpt>
      <trkpt lat="42.0766030008" lon="-73.9518463281">
        <ele>45.88</ele>
        <time>2021-10-10T08:47:48.000Z</time>
      </trkpt>
      <trkpt lat="42.076006" lon="-73.95157">
        <ele>44.790007</ele>
        <time>2021-10-10T08:47:55.000Z</time>
      </trkpt>
      <trkpt lat="42.0754570003" lon="-73.951331998">
        <ele>41.310005</ele>
        <time>2021-10-10T08:48:01.000Z</time>
      </trkpt>
      <trkpt lat="42.074914" lon="-73.951105">
        <ele>36.070002</ele>
        <time>2021-10-10T08:48:07.000Z</time>
      </trkpt>
      <trkpt lat="42.0744760002" lon="-73.9508629983">
        <ele>33.779991</ele>
        <time>2021-10-10T08:48:12.000Z</time>
      </trkpt>
      <trkpt lat="42.074032" lon="-73.950618">
        <ele>30.259993</ele>
        <time>2021-10-10T08:48:17.000Z</time>
      </trkpt>
      <trkpt lat="42.073731" lon="-73.950527">
        <ele>28.419997</ele>
        <time>2021-10-10T08:48:20.000Z</time>
      </trkpt>
      <trkpt lat="42.073682" lon="-73.949953">
        <ele>28.760009</ele>
        <time>2021-10-10T08:48:25.000Z</time>
      </trkpt>
      <trkpt lat="42.073689" lon="-73.949888">
        <ele>28.450008</ele>
        <time>2021-10-10T08:48:26.000Z</time>
      </trkpt>
    </trkseg>
  </trk>
</gpx>

<!--
Performance optimized by W3 Total Cache. Learn more: https://www.boldgrid.com/w3-total-cache/?utm_source=w3tc&utm_medium=footer_comment&utm_campaign=free_plugin

Page Caching using Disk: Enhanced{w3tc_pagecache_reject_reason} 

Served from: www.aquabike.world @ 2026-05-02 17:35:58 by W3 Total Cache
-->